Maggie Valley, NC

3:24 PM EDT on August 27, 2015 (GMT -0400)
The Thundering Herd | | Change Station
CLOSE
Current Station
Personal Weather Station
Location: Maggie Valley, NC
Elevation: 4672 ft
Nearby Weather Stations

Elev 4672 ft 35.56 °N, 83.09 °W | Updated 4 minutes ago

Partly Cloudy
Partly Cloudy
67.1 °F
Feels Like 67.1 °F
N
0.0
Wind Variable Wind from ENE
Gusts 0.0 mph

Today
High -- | Low -- °F
--% Chance of Precip.
Yesterday
High -- | Low -- °F
Precip. -- in
7:00 AM 8:06 PM
Waxing Gibbous, 94% visible
Pressure 30.05 in
Visibility 10.0 miles
Clouds Few 4600 ft
Mostly Cloudy 6500 ft
Dew Point 54 °F
Humidity 62%
Rainfall 0.00 in
Snow Depth Not available.
UV 5 out of 12
Pollen 8.30 out of 12
Air Quality Not available.
Flu Activity Not available.
METAR KAVL 271854Z 00000KT 10SM FEW046 BKN065 25/13 A3013 RMK AO2 SLP176 T02500133
Pressure 30.05 in
Visibility 10.0 miles
Clouds Few 4600 ft
Mostly Cloudy 6500 ft
Dew Point 54 °F
Humidity 62%
Rainfall 0.00 in
Snow Depth Not available.
UV 5 out of 12
Pollen 8.30 out of 12
Air Quality Not available.
Flu Activity Not available.
METAR KAVL 271854Z 00000KT 10SM FEW046 BKN065 25/13 A3013 RMK AO2 SLP176 T02500133

10-Day Weather Forecast

×

Almanac

Astronomy

Aug. 27, 2015 Rise Set
Actual Time
Civil Twilight
Nautical Twilight
Astronomical Twilight
Moon
Length of Visible Light
Length of Day
Tomorrow will be .
, % of the Moon is Illuminated

Today's Extremes

State Highs State Lows

Community

WunderPhotos

Upload Photos

1,850,195 photos uploaded!

WunderBlogs® & News

Nearby

Air Quality

  Air Quality AQ Index Pollutant
Not available.

Snow Depth

Station Depth Elevation

Earthquake Activity

City Distance Mag. Time & Date
Minimum magnitude displayed is 2.5.

Coastal Water Temperatures

Place Temperature

Stations

Nearby Weather Stations

Station Location Temp. Windchill Dew Point Humidity Wind Precip. Elev Updated Type